Terminal Aerodrome Forecast
Issued by NWS

Home | Current Version | Previous Version | Text Only | Print | Product List | Glossary Off
Versions: 1 2 3 4 5 6 7 8 9 10 11 12 13 14 15

000
FTUS43 KUNR 232300
TAFGCC
TAF
KGCC 232320Z 2400/2424 28011KT P6SM FEW200
     FM240600 23013KT P6SM FEW200
     FM241800 30015G25KT P6SM -SHRA BKN060=

USA.gov is the U.S. government's official web portal to all federal, state and local government web resources and services.